createdAt,value
2022-12-13T00:01:42.652Z,13.95
2022-12-13T00:04:10.711Z,13.13
2022-12-13T00:06:37.970Z,13.35
2022-12-13T00:09:05.339Z,13.18
2022-12-13T00:11:32.618Z,13.00
2022-12-13T00:13:59.936Z,12.73
2022-12-13T00:16:27.840Z,13.82
2022-12-13T00:18:57.331Z,12.73
2022-12-13T00:21:29.690Z,12.50
2022-12-13T00:23:57.118Z,11.23
2022-12-13T00:26:27.690Z,12.60
2022-12-13T00:29:00.587Z,12.60
2022-12-13T00:31:56.732Z,12.93
2022-12-13T00:34:14.809Z,11.70
2022-12-13T00:36:41.695Z,12.02
2022-12-13T00:39:08.589Z,12.48
2022-12-13T00:41:36.560Z,12.10
2022-12-13T00:44:04.556Z,12.57
2022-12-13T00:46:32.029Z,12.65
2022-12-13T00:49:00.765Z,11.90
2022-12-13T00:51:29.383Z,12.45
2022-12-13T00:53:56.232Z,12.07
2022-12-13T00:56:26.096Z,12.35
2022-12-13T00:58:53.766Z,11.88
2022-12-13T01:01:24.751Z,11.45
2022-12-13T01:03:53.879Z,11.48
2022-12-13T01:06:29.905Z,10.93
2022-12-13T01:08:56.896Z,12.10
2022-12-13T01:11:25.127Z,11.73
2022-12-13T01:13:51.996Z,12.27
2022-12-13T01:16:19.000Z,12.05
2022-12-13T01:18:49.005Z,11.05
2022-12-13T01:21:17.960Z,11.77
2022-12-13T01:23:45.390Z,11.13
2022-12-13T01:26:18.256Z,10.85
2022-12-13T01:28:45.222Z,11.23
2022-12-13T01:31:15.471Z,10.77
2022-12-13T01:33:42.899Z,11.25
2022-12-13T01:36:17.169Z,11.00
2022-12-13T01:38:44.024Z,11.13
2022-12-13T01:41:17.148Z,10.85
2022-12-13T01:43:45.236Z,11.18
2022-12-13T01:46:13.560Z,11.55
2022-12-13T01:49:20.034Z,11.43
2022-12-13T01:51:52.995Z,11.27
2022-12-13T01:54:24.595Z,11.50
2022-12-13T01:57:02.671Z,11.68
2022-12-13T01:59:34.012Z,11.70
2022-12-13T02:02:01.314Z,11.02
2022-12-13T02:04:46.494Z,11.40
2022-12-13T02:07:23.160Z,11.52
2022-12-13T02:09:59.296Z,11.85
2022-12-13T02:12:32.734Z,11.43
2022-12-13T02:15:03.170Z,11.43
2022-12-13T02:18:05.957Z,11.02
2022-12-13T02:21:12.647Z,10.38
2022-12-13T02:23:48.506Z,10.32
2022-12-13T02:26:27.278Z,10.48
2022-12-13T02:29:09.076Z,10.35
2022-12-13T02:31:39.259Z,9.55
2022-12-13T02:34:09.855Z,10.65
2022-12-13T02:37:18.253Z,9.95
2022-12-13T02:40:01.213Z,9.93
2022-12-13T02:42:34.219Z,9.77
2022-12-13T02:45:07.823Z,10.23
2022-12-13T02:47:38.630Z,9.82
2022-12-13T02:50:08.317Z,10.35
2022-12-13T02:52:35.411Z,9.80
2022-12-13T02:55:07.961Z,10.00
2022-12-13T02:57:40.462Z,10.18
2022-12-13T03:00:09.966Z,9.48
2022-12-13T03:02:51.999Z,9.32
2022-12-13T03:06:00.832Z,9.95
2022-12-13T03:08:35.454Z,10.40
2022-12-13T03:11:09.130Z,9.70
2022-12-13T03:13:45.118Z,9.10
2022-12-13T03:16:34.565Z,8.65
2022-12-13T03:19:03.183Z,9.27
2022-12-13T03:21:30.427Z,8.80
2022-12-13T03:23:57.298Z,9.68
2022-12-13T03:26:25.829Z,9.43
2022-12-13T03:28:53.008Z,9.52
2022-12-13T03:31:20.444Z,8.60
2022-12-13T03:33:47.405Z,9.63
2022-12-13T03:36:14.580Z,8.57
2022-12-13T03:38:41.952Z,8.82
2022-12-13T03:41:14.337Z,9.70
2022-12-13T03:43:42.142Z,9.95
2022-12-13T03:46:12.145Z,8.35
2022-12-13T03:48:39.267Z,8.48
2022-12-13T03:51:06.320Z,8.55
2022-12-13T03:53:34.767Z,9.02
2022-12-13T03:56:05.387Z,8.40
2022-12-13T03:58:36.568Z,8.63
2022-12-13T04:01:12.053Z,8.65
2022-12-13T04:03:40.183Z,8.25
2022-12-13T04:06:10.524Z,8.40
2022-12-13T04:08:41.420Z,8.40
2022-12-13T04:11:27.285Z,7.70
2022-12-13T04:13:54.666Z,7.70
2022-12-13T04:16:21.926Z,7.55
2022-12-13T04:18:50.288Z,7.90
2022-12-13T04:21:17.222Z,8.07
2022-12-13T04:23:44.149Z,7.72
2022-12-13T04:26:10.897Z,7.60
2022-12-13T04:28:37.654Z,7.78
2022-12-13T04:31:04.582Z,7.32
2022-12-13T04:33:32.888Z,9.13
2022-12-13T04:36:02.100Z,7.43
2022-12-13T04:38:29.029Z,7.25
2022-12-13T04:41:06.389Z,8.32
2022-12-13T04:43:33.334Z,7.93
2022-12-13T04:46:02.918Z,7.78
2022-12-13T04:48:30.978Z,8.23
2022-12-13T04:51:01.648Z,6.88
2022-12-13T04:53:29.854Z,7.63
2022-12-13T04:55:59.855Z,6.82
2022-12-13T04:58:27.619Z,7.28
2022-12-13T05:00:55.808Z,7.25
2022-12-13T05:09:17.473Z,7.32
2022-12-13T05:11:47.085Z,7.60
2022-12-13T05:14:15.125Z,7.82
2022-12-13T05:16:52.630Z,7.38
2022-12-13T05:19:30.546Z,7.30
2022-12-13T05:22:01.432Z,7.47
2022-12-13T05:24:33.516Z,7.78
2022-12-13T05:27:02.212Z,7.25
2022-12-13T05:29:49.224Z,7.43
2022-12-13T05:32:16.053Z,7.20
2022-12-13T05:34:43.845Z,6.70
2022-12-13T05:37:19.231Z,7.50
2022-12-13T05:39:46.042Z,7.38
2022-12-13T05:42:12.946Z,6.88
2022-12-13T05:44:39.879Z,6.95
2022-12-13T05:47:06.682Z,7.38
2022-12-13T05:49:33.532Z,7.43
2022-12-13T05:52:00.416Z,7.35
2022-12-13T05:54:27.307Z,8.18
2022-12-13T05:56:54.223Z,7.63
2022-12-13T05:59:21.886Z,7.40
2022-12-13T06:04:35.714Z,7.20
2022-12-13T06:07:02.762Z,7.80
2022-12-13T06:10:10.653Z,7.43
2022-12-13T06:12:43.312Z,8.00
2022-12-13T06:15:21.707Z,8.27
2022-12-13T06:17:49.839Z,8.88
2022-12-13T06:20:24.368Z,8.02
2022-12-13T06:22:55.054Z,7.80
2022-12-13T06:25:30.643Z,7.50
2022-12-13T06:28:01.039Z,8.52
2022-12-13T06:30:30.405Z,7.70
2022-12-13T06:41:45.919Z,7.60
2022-12-13T06:44:12.783Z,7.78
2022-12-13T06:46:40.964Z,8.10
2022-12-13T06:49:08.008Z,8.20
2022-12-13T06:51:35.212Z,7.95
2022-12-13T06:54:05.318Z,7.55
2022-12-13T06:56:32.988Z,8.85
2022-12-13T06:59:01.509Z,7.88
2022-12-13T07:01:37.050Z,8.77
2022-12-13T07:04:29.843Z,8.27
2022-12-13T07:07:01.008Z,7.75
2022-12-13T07:09:30.245Z,8.52
2022-12-13T07:11:59.793Z,8.43
2022-12-13T07:20:36.060Z,8.35
2022-12-13T07:23:03.263Z,7.85
2022-12-13T07:25:30.354Z,8.15
2022-12-13T07:28:02.858Z,8.90
2022-12-13T07:30:31.623Z,9.30
2022-12-13T07:32:58.496Z,8.95
2022-12-13T07:35:25.331Z,8.73
2022-12-13T07:37:53.649Z,8.50
2022-12-13T07:40:26.076Z,8.07
2022-12-13T07:42:56.479Z,8.57
2022-12-13T07:45:28.348Z,8.93
2022-12-13T07:47:55.305Z,8.20
2022-12-13T07:50:26.287Z,7.75
2022-12-13T07:52:53.574Z,8.65
2022-12-13T07:55:33.063Z,8.48
2022-12-13T07:58:08.503Z,8.70
2022-12-13T08:00:36.882Z,7.82
2022-12-13T08:03:03.981Z,9.18
2022-12-13T08:08:22.563Z,9.50
2022-12-13T08:11:15.521Z,9.13
2022-12-13T08:13:42.560Z,8.52
2022-12-13T08:16:28.353Z,9.32
2022-12-13T08:19:01.928Z,9.00
2022-12-13T08:21:58.570Z,8.88
2022-12-13T08:24:29.415Z,8.75
2022-12-13T08:27:01.532Z,8.75
2022-12-13T08:29:33.511Z,9.25
2022-12-13T08:32:07.307Z,8.88
2022-12-13T08:34:34.102Z,8.70
2022-12-13T08:37:03.277Z,9.15
2022-12-13T08:39:36.716Z,9.52
2022-12-13T08:42:16.524Z,8.60
2022-12-13T08:44:50.122Z,9.15
2022-12-13T08:47:22.456Z,9.95
2022-12-13T08:49:51.016Z,10.63
2022-12-13T08:52:18.186Z,10.32
2022-12-13T08:54:45.008Z,9.23
2022-12-13T08:57:11.792Z,9.60
2022-12-13T08:59:38.725Z,10.05
2022-12-13T09:02:05.615Z,9.65
2022-12-13T09:04:32.624Z,8.80
2022-12-13T09:07:01.266Z,9.18
2022-12-13T09:09:29.863Z,9.95
2022-12-13T09:11:59.460Z,9.55
2022-12-13T09:14:33.965Z,10.73
2022-12-13T09:17:03.644Z,10.05
2022-12-13T09:19:37.105Z,9.70
2022-12-13T09:22:05.272Z,9.32
2022-12-13T09:24:36.262Z,10.23
2022-12-13T09:27:09.414Z,9.63
2022-12-13T09:29:38.479Z,9.52
2022-12-13T09:32:06.155Z,9.75
2022-12-13T09:34:33.307Z,9.95
2022-12-13T09:37:01.704Z,9.07
2022-12-13T09:39:29.626Z,10.05
2022-12-13T09:42:00.936Z,10.40
2022-12-13T09:44:44.087Z,9.82
2022-12-13T09:47:35.226Z,9.68
2022-12-13T09:50:07.003Z,9.10
2022-12-13T09:52:39.577Z,9.55
2022-12-13T09:55:22.192Z,10.27
2022-12-13T09:57:51.901Z,9.88
2022-12-13T10:00:21.832Z,9.68
2022-12-13T10:02:55.212Z,9.55
2022-12-13T10:05:34.554Z,9.18
2022-12-13T10:08:16.884Z,9.35
2022-12-13T10:10:44.541Z,10.43
2022-12-13T10:13:21.063Z,9.95
2022-12-13T10:15:54.147Z,10.02
2022-12-13T10:18:36.321Z,10.35
2022-12-13T10:21:27.254Z,9.95
2022-12-13T10:26:42.553Z,10.90
2022-12-13T10:29:11.014Z,10.05
2022-12-13T10:31:46.153Z,10.07
2022-12-13T10:34:36.212Z,9.90
2022-12-13T10:37:25.221Z,9.73
2022-12-13T10:39:52.104Z,9.80
2022-12-13T10:42:25.811Z,9.65
2022-12-13T10:45:10.806Z,9.88
2022-12-13T10:47:38.017Z,8.82
2022-12-13T10:50:05.107Z,9.15
2022-12-13T10:52:43.221Z,9.93
2022-12-13T10:55:32.980Z,10.15
2022-12-13T10:58:02.769Z,9.23
2022-12-13T11:00:41.504Z,9.30
2022-12-13T11:03:14.686Z,10.00
2022-12-13T11:05:45.685Z,9.40
2022-12-13T11:08:23.965Z,8.40
2022-12-13T11:10:59.095Z,9.20
2022-12-13T11:13:55.509Z,9.00
2022-12-13T11:16:35.604Z,8.10
2022-12-13T11:19:08.862Z,9.18
2022-12-13T11:21:37.730Z,9.25
2022-12-13T11:24:07.664Z,9.82
2022-12-13T11:26:36.914Z,8.95
2022-12-13T11:29:43.588Z,8.73
2022-12-13T11:32:22.484Z,8.77
2022-12-13T11:34:56.518Z,8.63
2022-12-13T11:37:28.991Z,8.75
2022-12-13T11:40:24.483Z,8.57
2022-12-13T11:42:59.481Z,8.32
2022-12-13T11:45:36.389Z,8.65
2022-12-13T11:48:26.311Z,8.20
2022-12-13T11:50:55.257Z,8.57
2022-12-13T11:53:28.563Z,8.50
2022-12-13T11:56:11.556Z,8.32
2022-12-13T11:59:03.903Z,8.85
2022-12-13T12:01:48.120Z,9.27
2022-12-13T12:05:00.540Z,8.65
2022-12-13T12:07:34.739Z,8.48
2022-12-13T12:10:32.226Z,8.88
2022-12-13T12:13:08.827Z,8.90
2022-12-13T12:15:42.260Z,8.20
2022-12-13T12:18:19.693Z,8.52
2022-12-13T12:21:04.802Z,8.90
2022-12-13T12:23:52.421Z,9.15
2022-12-13T12:26:24.473Z,8.52
2022-12-13T12:29:01.926Z,8.93
2022-12-13T12:31:50.690Z,9.55
2022-12-13T12:34:29.942Z,9.10
2022-12-13T12:37:06.926Z,9.60
2022-12-13T12:39:44.357Z,8.93
2022-12-13T12:42:25.458Z,9.43
2022-12-13T12:45:05.828Z,9.80
2022-12-13T12:48:38.572Z,9.93
2022-12-13T12:51:04.801Z,9.38
2022-12-13T12:53:45.383Z,9.10
2022-12-13T12:56:50.823Z,9.68
2022-12-13T12:59:37.222Z,9.52
2022-12-13T13:02:18.530Z,9.25
2022-12-13T13:04:52.789Z,9.77
2022-12-13T13:07:28.838Z,9.88
2022-12-13T13:09:57.257Z,9.40
2022-12-13T13:12:29.097Z,9.35
2022-12-13T13:15:01.147Z,8.77
2022-12-13T13:17:28.122Z,9.60
2022-12-13T13:20:14.183Z,9.13
2022-12-13T13:22:42.962Z,8.30
2022-12-13T13:25:32.790Z,10.00
2022-12-13T13:28:15.675Z,9.35
2022-12-13T13:31:26.862Z,9.13
2022-12-13T13:34:24.657Z,9.70
2022-12-13T13:36:53.350Z,9.48
2022-12-13T13:39:38.526Z,10.13
2022-12-13T13:42:14.660Z,10.18
2022-12-13T13:44:54.091Z,11.45
2022-12-13T13:47:21.060Z,10.05
2022-12-13T13:50:08.072Z,10.85
2022-12-13T13:52:44.283Z,11.13
2022-12-13T13:55:21.721Z,11.60
2022-12-13T13:58:09.736Z,12.00
2022-12-13T14:01:24.060Z,12.68
2022-12-13T14:04:22.694Z,12.48
2022-12-13T14:07:00.212Z,12.25
2022-12-13T14:10:03.825Z,12.75
2022-12-13T14:12:44.095Z,11.40
2022-12-13T14:16:01.292Z,12.43
2022-12-13T14:19:07.980Z,11.70
2022-12-13T14:21:41.036Z,12.00
2022-12-13T14:24:39.615Z,12.35
2022-12-13T14:27:23.074Z,11.05
2022-12-13T14:29:58.653Z,12.68
2022-12-13T14:32:33.408Z,12.10
2022-12-13T14:35:24.740Z,12.88
2022-12-13T14:37:57.891Z,12.73
2022-12-13T14:40:32.871Z,12.43
2022-12-13T14:43:00.432Z,13.02
2022-12-13T14:45:38.535Z,14.00
2022-12-13T14:50:59.645Z,14.05
2022-12-13T14:53:41.567Z,14.38
2022-12-13T14:56:27.835Z,14.57
2022-12-13T14:59:16.168Z,15.27
2022-12-13T15:02:04.433Z,14.43
2022-12-13T15:04:38.589Z,14.52
2022-12-13T15:07:30.793Z,14.23
2022-12-13T15:10:01.081Z,14.15
2022-12-13T15:12:35.503Z,14.75
2022-12-13T15:15:25.978Z,14.27
2022-12-13T15:18:25.349Z,14.18
2022-12-13T15:21:02.420Z,13.60
2022-12-13T15:23:49.085Z,13.65
2022-12-13T15:26:28.621Z,14.38
2022-12-13T15:29:10.252Z,13.70
2022-12-13T15:31:43.195Z,14.10
2022-12-13T15:34:39.064Z,13.35
2022-12-13T15:37:28.370Z,13.48
2022-12-13T15:40:02.196Z,13.40
2022-12-13T15:42:32.798Z,14.48
2022-12-13T15:45:20.529Z,13.27
2022-12-13T15:47:47.814Z,13.52
2022-12-13T15:50:36.529Z,13.05
2022-12-13T15:53:07.119Z,14.23
2022-12-13T15:55:35.780Z,14.13
2022-12-13T15:58:03.411Z,14.25
2022-12-13T16:00:34.605Z,14.55
2022-12-13T16:03:13.059Z,14.63
2022-12-13T16:05:50.155Z,13.73
2022-12-13T16:08:32.031Z,14.35
2022-12-13T16:11:00.373Z,15.07
2022-12-13T16:13:33.408Z,13.38
2022-12-13T16:16:35.221Z,14.50
2022-12-13T16:19:17.720Z,13.07
2022-12-13T16:21:48.488Z,14.35
2022-12-13T16:24:15.543Z,14.00
2022-12-13T16:27:22.592Z,13.93
2022-12-13T16:29:51.659Z,13.07
2022-12-13T16:32:22.920Z,13.63
2022-12-13T16:34:50.442Z,13.40
2022-12-13T16:37:27.584Z,13.02
2022-12-13T16:40:02.216Z,12.45
2022-12-13T16:42:30.794Z,13.35
2022-12-13T16:45:18.127Z,13.13
2022-12-13T16:47:49.248Z,12.93
2022-12-13T16:50:21.057Z,13.00
2022-12-13T16:52:49.327Z,12.77
2022-12-13T16:55:18.810Z,12.90
2022-12-13T16:57:56.058Z,13.27
2022-12-13T17:00:24.241Z,13.30
2022-12-13T17:02:53.828Z,13.60
2022-12-13T17:05:22.165Z,12.95
2022-12-13T17:07:55.942Z,13.68
2022-12-13T17:10:25.616Z,13.65
2022-12-13T17:13:06.672Z,13.32
2022-12-13T17:15:47.406Z,12.90
2022-12-13T17:18:42.103Z,13.25
2022-12-13T17:21:11.548Z,13.57
2022-12-13T17:23:41.261Z,12.55
2022-12-13T17:26:09.726Z,13.20
2022-12-13T17:28:37.117Z,12.60
2022-12-13T17:31:15.119Z,12.93
2022-12-13T17:33:44.971Z,12.60
2022-12-13T17:36:14.843Z,12.98
2022-12-13T17:38:49.468Z,12.90
2022-12-13T17:41:37.738Z,12.82
2022-12-13T17:47:05.965Z,12.93
2022-12-13T17:49:53.201Z,12.15
2022-12-13T17:52:23.266Z,12.85
2022-12-13T17:54:50.686Z,12.40
2022-12-13T17:57:17.527Z,13.02
2022-12-13T17:59:44.621Z,12.65
2022-12-13T18:02:39.278Z,13.32
2022-12-13T18:05:08.752Z,12.48
2022-12-13T18:07:40.780Z,12.93
2022-12-13T18:13:18.029Z,11.68
2022-12-13T18:15:49.853Z,12.48
2022-12-13T18:18:17.783Z,12.02
2022-12-13T18:20:46.391Z,12.40
2022-12-13T18:23:18.365Z,12.30
2022-12-13T18:25:46.071Z,12.40
2022-12-13T18:28:14.519Z,11.75
2022-12-13T18:30:42.289Z,11.98
2022-12-13T18:33:15.417Z,11.07
2022-12-13T18:35:43.606Z,10.65
2022-12-13T18:38:10.842Z,11.35
2022-12-13T18:40:39.051Z,10.82
2022-12-13T18:43:10.056Z,12.23
2022-12-13T18:45:37.251Z,10.27
2022-12-13T18:48:08.170Z,11.68
2022-12-13T18:50:38.340Z,9.57
2022-12-13T18:53:07.192Z,10.32
2022-12-13T18:55:45.162Z,10.35
2022-12-13T18:58:16.084Z,10.32
2022-12-13T19:00:45.526Z,10.20
2022-12-13T19:03:15.350Z,9.63
2022-12-13T19:05:43.445Z,9.85
2022-12-13T19:08:16.875Z,10.13
2022-12-13T19:10:46.998Z,9.55
2022-12-13T19:13:17.485Z,10.43
2022-12-13T19:22:01.407Z,8.93
2022-12-13T19:24:50.202Z,9.65
2022-12-13T19:27:17.440Z,9.40
2022-12-13T19:29:46.825Z,9.82
2022-12-13T19:32:14.676Z,9.98
2022-12-13T19:34:53.666Z,10.00
2022-12-13T19:37:21.015Z,9.80
2022-12-13T19:39:47.912Z,10.02
2022-12-13T19:42:15.987Z,9.45
2022-12-13T19:44:43.010Z,9.98
2022-12-13T19:55:49.768Z,9.70
2022-12-13T19:58:44.008Z,9.82
2022-12-13T20:12:54.935Z,9.35
2022-12-13T20:15:37.341Z,9.75
2022-12-13T20:18:09.792Z,9.32
2022-12-13T20:21:02.496Z,9.40
2022-12-13T20:23:38.627Z,9.93
2022-12-13T20:26:13.319Z,9.25
2022-12-13T20:28:58.975Z,10.45
2022-12-13T20:31:51.677Z,9.30
2022-12-13T20:40:01.994Z,8.48
2022-12-13T20:42:30.693Z,9.90
2022-12-13T20:45:00.084Z,9.18
2022-12-13T20:47:28.214Z,9.38
2022-12-13T20:49:55.531Z,9.10
2022-12-13T20:55:12.268Z,9.10
2022-12-13T20:57:50.035Z,9.55
2022-12-13T21:00:18.459Z,8.55
2022-12-13T21:02:46.202Z,8.88
2022-12-13T21:05:19.097Z,9.80
2022-12-13T21:08:07.005Z,9.68
2022-12-13T21:10:37.819Z,9.13
2022-12-13T21:13:09.041Z,9.25
2022-12-13T21:15:39.704Z,9.32
2022-12-13T21:18:08.849Z,9.20
2022-12-13T21:20:43.887Z,8.32
2022-12-13T21:23:12.819Z,9.38
2022-12-13T21:25:40.480Z,8.93
2022-12-13T21:28:07.964Z,9.73
2022-12-13T21:30:35.218Z,8.90
2022-12-13T21:33:03.680Z,8.48
2022-12-13T21:35:31.427Z,10.65
2022-12-13T21:38:03.702Z,9.60
2022-12-13T21:40:34.448Z,10.15
2022-12-13T21:43:01.676Z,10.80
2022-12-13T21:45:32.639Z,11.40
2022-12-13T21:48:01.867Z,12.30
2022-12-13T21:50:31.720Z,11.95
2022-12-13T21:53:21.192Z,12.73
2022-12-13T21:55:52.392Z,12.80
2022-12-13T21:58:44.748Z,14.35
2022-12-13T22:01:18.401Z,13.60
2022-12-13T22:03:45.619Z,14.38
2022-12-13T22:06:13.085Z,14.57
2022-12-13T22:08:39.997Z,14.57
2022-12-13T22:11:21.302Z,14.77
2022-12-13T22:14:02.715Z,13.32
2022-12-13T22:16:29.974Z,13.90
2022-12-13T22:18:57.311Z,13.45
2022-12-13T22:21:24.492Z,12.63
2022-12-13T22:23:55.737Z,13.05
2022-12-13T22:26:24.091Z,12.27
2022-12-13T22:28:52.364Z,12.07
2022-12-13T22:31:19.542Z,12.02
2022-12-13T22:33:46.347Z,11.68
2022-12-13T22:36:13.793Z,11.20
2022-12-13T22:38:40.814Z,10.15
2022-12-13T22:41:16.964Z,10.82
2022-12-13T22:43:44.662Z,9.57
2022-12-13T22:46:17.649Z,10.45
2022-12-13T22:48:48.280Z,10.32
2022-12-13T22:51:16.993Z,9.48
2022-12-13T22:53:45.449Z,8.88
2022-12-13T22:56:26.327Z,10.10
2022-12-13T22:58:55.814Z,9.32
2022-12-13T23:01:28.003Z,10.02
2022-12-13T23:03:59.156Z,10.45
2022-12-13T23:06:32.850Z,9.88
2022-12-13T23:09:02.059Z,10.10
2022-12-13T23:11:48.607Z,12.07
2022-12-13T23:14:29.349Z,10.70
2022-12-13T23:17:04.983Z,8.50
2022-12-13T23:19:50.980Z,10.00
2022-12-13T23:22:22.172Z,10.73
2022-12-13T23:24:55.436Z,9.73
2022-12-13T23:27:23.564Z,9.38
2022-12-13T23:29:50.623Z,8.82
2022-12-13T23:32:17.677Z,8.70
2022-12-13T23:34:44.458Z,9.05
2022-12-13T23:37:11.704Z,8.57
2022-12-13T23:39:38.944Z,8.82
2022-12-13T23:42:06.307Z,9.13
2022-12-13T23:44:33.446Z,9.07
2022-12-13T23:47:00.434Z,9.52
2022-12-13T23:49:27.307Z,9.35
2022-12-13T23:51:54.334Z,9.50
2022-12-13T23:54:21.321Z,8.93
2022-12-13T23:56:51.174Z,9.02
2022-12-13T23:59:21.678Z,8.95
